Time,TemperatureF,DewpointF,PressureIn,WindDirection,WindDirectionDegrees,WindSpeedMPH,WindSpeedGustMPH,Humidity,HourlyPrecipIn,Conditions,Clouds,dailyrainin,SoftwareType,DateUTC
2013-06-12 00:01:00,57.5,30.8,29.83,NW,316,1.0,1.0,36,0.00,,,0.00,WeatherCatV1.14B232,2013-06-12 06:01:00,
2013-06-12 00:06:00,57.0,32.9,29.83,East,94,2.0,2.0,40,0.00,,,0.00,WeatherCatV1.14B232,2013-06-12 06:06:00,
2013-06-12 00:11:00,55.9,33.7,29.83,NE,50,1.0,2.0,43,0.00,,,0.00,WeatherCatV1.14B232,2013-06-12 06:11:00,
2013-06-12 00:16:00,55.2,33.1,29.83,NE,37,0.0,0.0,43,0.00,,,0.00,WeatherCatV1.14B232,2013-06-12 06:16:00,
2013-06-12 00:21:00,54.8,36.0,29.83,SSW,200,1.0,2.0,49,0.00,,,0.00,WeatherCatV1.14B232,2013-06-12 06:21:00,
2013-06-12 00:26:00,54.0,34.8,29.83,South,171,1.0,2.0,48,0.00,,,0.00,WeatherCatV1.14B232,2013-06-12 06:26:00,
2013-06-12 00:31:00,53.7,34.5,29.83,SSE,164,0.0,1.0,48,0.00,,,0.00,WeatherCatV1.14B232,2013-06-12 06:31:00,
2013-06-12 00:36:00,53.4,34.2,29.83,NE,37,1.0,1.0,48,0.00,,,0.00,WeatherCatV1.14B232,2013-06-12 06:36:00,
2013-06-12 00:41:00,53.4,36.7,29.84,WSW,248,0.0,1.0,53,0.00,,,0.00,WeatherCatV1.14B232,2013-06-12 06:41:00,
2013-06-12 00:46:00,52.5,35.4,29.83,WSW,248,0.0,0.0,52,0.00,,,0.00,WeatherCatV1.14B232,2013-06-12 06:46:00,
2013-06-12 00:51:00,52.0,34.9,29.83,WSW,248,0.0,0.0,52,0.00,,,0.00,WeatherCatV1.14B232,2013-06-12 06:51:00,
2013-06-12 00:56:00,51.6,36.0,29.83,WSW,250,0.0,0.0,55,0.00,,,0.00,WeatherCatV1.14B232,2013-06-12 06:56:00,
2013-06-12 01:01:00,51.4,33.9,29.83,WSW,250,0.0,0.0,51,0.00,,,0.00,WeatherCatV1.14B232,2013-06-12 07:01:00,
2013-06-12 01:06:00,51.3,37.0,29.84,WSW,242,0.0,0.0,58,0.00,,,0.00,WeatherCatV1.14B232,2013-06-12 07:06:00,
2013-06-12 01:11:00,51.0,34.5,29.84,WSW,242,0.0,0.0,53,0.00,,,0.00,WeatherCatV1.14B232,2013-06-12 07:11:00,
2013-06-12 01:16:00,50.9,36.7,29.84,South,174,0.0,0.0,58,0.00,,,0.00,WeatherCatV1.14B232,2013-06-12 07:16:00,
2013-06-12 01:21:00,50.2,37.7,29.84,WSW,249,0.0,0.0,62,0.00,,,0.00,WeatherCatV1.14B232,2013-06-12 07:21:00,
2013-06-12 01:26:00,49.6,36.3,29.85,WSW,249,0.0,0.0,60,0.00,,,0.00,WeatherCatV1.14B232,2013-06-12 07:26:00,
2013-06-12 01:31:00,49.1,35.4,29.85,SW,222,0.0,0.0,59,0.00,,,0.00,WeatherCatV1.14B232,2013-06-12 07:31:00,
2013-06-12 01:36:00,48.8,36.4,29.85,SW,222,0.0,0.0,62,0.00,,,0.00,WeatherCatV1.14B232,2013-06-12 07:36:00,
2013-06-12 01:41:00,48.4,37.6,29.85,SW,222,0.0,0.0,66,0.00,,,0.00,WeatherCatV1.14B232,2013-06-12 07:41:00,
2013-06-12 01:46:00,47.9,37.1,29.85,SW,222,0.0,0.0,66,0.00,,,0.00,WeatherCatV1.14B232,2013-06-12 07:46:00,
2013-06-12 01:51:00,47.6,37.6,29.85,SW,217,0.0,0.0,68,0.00,,,0.00,WeatherCatV1.14B232,2013-06-12 07:51:00,
2013-06-12 01:56:00,47.1,37.8,29.85,South,176,0.0,1.0,70,0.00,,,0.00,WeatherCatV1.14B232,2013-06-12 07:56:00,
2013-06-12 02:01:00,46.6,37.3,29.86,South,169,1.0,2.0,70,0.00,,,0.00,WeatherCatV1.14B232,2013-06-12 08:01:00,
2013-06-12 02:06:00,46.8,35.7,29.85,SE,141,0.0,0.0,65,0.00,,,0.00,WeatherCatV1.14B232,2013-06-12 08:06:00,
2013-06-12 02:11:00,46.9,36.1,29.86,SE,141,0.0,0.0,66,0.00,,,0.00,WeatherCatV1.14B232,2013-06-12 08:11:00,
2013-06-12 02:16:00,46.7,37.1,29.86,SE,141,0.0,0.0,69,0.00,,,0.00,WeatherCatV1.14B232,2013-06-12 08:16:00,
2013-06-12 02:21:00,46.3,37.4,29.86,SE,141,0.0,0.0,71,0.00,,,0.00,WeatherCatV1.14B232,2013-06-12 08:21:00,
2013-06-12 02:26:00,45.9,37.4,29.86,SSE,150,0.0,0.0,72,0.00,,,0.00,WeatherCatV1.14B232,2013-06-12 08:26:00,
2013-06-12 02:31:00,45.4,37.3,29.86,SSE,154,0.0,0.0,73,0.00,,,0.00,WeatherCatV1.14B232,2013-06-12 08:31:00,
2013-06-12 02:36:00,45.3,36.8,29.87,South,176,1.0,2.0,72,0.00,,,0.00,WeatherCatV1.14B232,2013-06-12 08:36:00,
2013-06-12 02:41:00,45.3,36.5,29.86,SE,146,0.0,0.0,71,0.00,,,0.00,WeatherCatV1.14B232,2013-06-12 08:41:00,
2013-06-12 02:46:00,45.2,36.0,29.87,SE,146,0.0,0.0,70,0.00,,,0.00,WeatherCatV1.14B232,2013-06-12 08:46:00,
2013-06-12 02:51:00,45.1,35.9,29.87,SSE,160,0.0,1.0,70,0.00,,,0.00,WeatherCatV1.14B232,2013-06-12 08:51:00,
2013-06-12 02:56:00,44.9,36.1,29.87,South,176,0.0,1.0,71,0.00,,,0.00,WeatherCatV1.14B232,2013-06-12 08:56:00,
2013-06-12 03:01:00,44.5,36.4,29.87,SSE,157,0.0,1.0,73,0.00,,,0.00,WeatherCatV1.14B232,2013-06-12 09:01:00,
2013-06-12 03:06:00,44.3,35.5,29.88,South,173,1.0,1.0,71,0.00,,,0.00,WeatherCatV1.14B232,2013-06-12 09:06:00,
2013-06-12 03:11:00,44.2,35.8,29.88,SSE,164,0.0,0.0,72,0.00,,,0.00,WeatherCatV1.14B232,2013-06-12 09:11:00,
2013-06-12 03:16:00,44.0,35.6,29.87,SSE,164,0.0,0.0,72,0.00,,,0.00,WeatherCatV1.14B232,2013-06-12 09:16:00,
2013-06-12 03:21:00,43.8,36.1,29.88,SSE,163,0.0,0.0,74,0.00,,,0.00,WeatherCatV1.14B232,2013-06-12 09:21:00,
2013-06-12 03:26:00,43.6,35.5,29.88,SSE,164,0.0,0.0,73,0.00,,,0.00,WeatherCatV1.14B232,2013-06-12 09:26:00,
2013-06-12 03:31:00,43.4,36.3,29.88,South,170,0.0,1.0,76,0.00,,,0.00,WeatherCatV1.14B232,2013-06-12 09:31:00,
2013-06-12 03:36:00,43.0,36.3,29.88,SW,229,1.0,1.0,77,0.00,,,0.00,WeatherCatV1.14B232,2013-06-12 09:36:00,
2013-06-12 03:41:00,42.9,35.5,29.88,South,172,0.0,1.0,75,0.00,,,0.00,WeatherCatV1.14B232,2013-06-12 09:41:00,
2013-06-12 03:46:00,43.0,34.9,29.88,South,169,0.0,1.0,73,0.00,,,0.00,WeatherCatV1.14B232,2013-06-12 09:46:00,
2013-06-12 03:51:00,43.3,35.2,29.88,SE,145,0.0,1.0,73,0.00,,,0.00,WeatherCatV1.14B232,2013-06-12 09:51:00,
2013-06-12 03:56:00,43.2,34.8,29.88,SE,145,0.0,0.0,72,0.00,,,0.00,WeatherCatV1.14B232,2013-06-12 09:56:00,
2013-06-12 04:01:00,43.1,35.4,29.88,SSE,150,0.0,0.0,74,0.00,,,0.00,WeatherCatV1.14B232,2013-06-12 10:01:00,
2013-06-12 04:06:00,42.8,35.1,29.89,South,176,0.0,0.0,74,0.00,,,0.00,WeatherCatV1.14B232,2013-06-12 10:06:00,
2013-06-12 04:11:00,42.7,35.0,29.89,South,176,0.0,0.0,74,0.00,,,0.00,WeatherCatV1.14B232,2013-06-12 10:11:00,
2013-06-12 04:16:00,42.6,35.2,29.89,SSE,167,0.0,0.0,75,0.00,,,0.00,WeatherCatV1.14B232,2013-06-12 10:16:00,
2013-06-12 04:21:00,42.3,35.3,29.89,SSE,165,1.0,2.0,76,0.00,,,0.00,WeatherCatV1.14B232,2013-06-12 10:21:00,
2013-06-12 04:26:00,42.1,34.8,29.89,SSE,168,0.0,0.0,75,0.00,,,0.00,WeatherCatV1.14B232,2013-06-12 10:26:00,
2013-06-12 04:31:00,42.0,35.0,29.89,SSE,163,0.0,1.0,76,0.00,,,0.00,WeatherCatV1.14B232,2013-06-12 10:31:00,
2013-06-12 04:36:00,42.0,35.0,29.90,East,93,0.0,1.0,76,0.00,,,0.00,WeatherCatV1.14B232,2013-06-12 10:36:00,
2013-06-12 04:41:00,41.9,35.2,29.90,South,173,1.0,1.0,77,0.00,,,0.00,WeatherCatV1.14B232,2013-06-12 10:41:00,
2013-06-12 04:46:00,41.7,35.0,29.90,SSE,151,0.0,1.0,77,0.00,,,0.00,WeatherCatV1.14B232,2013-06-12 10:46:00,
2013-06-12 04:51:00,41.4,34.7,29.90,SSE,151,0.0,0.0,77,0.00,,,0.00,WeatherCatV1.14B232,2013-06-12 10:51:00,
2013-06-12 04:56:00,41.2,34.5,29.91,SSE,150,0.0,0.0,77,0.00,,,0.00,WeatherCatV1.14B232,2013-06-12 10:56:00,
2013-06-12 05:01:00,41.2,35.2,29.91,SW,229,0.0,0.0,79,0.00,,,0.00,WeatherCatV1.14B232,2013-06-12 11:01:00,
2013-06-12 05:06:00,40.9,35.5,29.91,SW,226,0.0,0.0,81,0.00,,,0.00,WeatherCatV1.14B232,2013-06-12 11:06:00,
2013-06-12 05:11:00,40.7,34.7,29.91,SSE,152,0.0,1.0,79,0.00,,,0.00,WeatherCatV1.14B232,2013-06-12 11:11:00,
2013-06-12 05:16:00,40.6,34.3,29.92,South,189,0.0,1.0,78,0.00,,,0.00,WeatherCatV1.14B232,2013-06-12 11:16:00,
2013-06-12 05:21:00,40.5,34.2,29.92,SSE,165,0.0,0.0,78,0.00,,,0.00,WeatherCatV1.14B232,2013-06-12 11:21:00,
2013-06-12 05:26:00,40.4,34.4,29.92,SSE,165,0.0,0.0,79,0.00,,,0.00,WeatherCatV1.14B232,2013-06-12 11:26:00,
2013-06-12 05:31:00,40.4,34.4,29.92,ESE,108,0.0,0.0,79,0.00,,,0.00,WeatherCatV1.14B232,2013-06-12 11:31:00,
2013-06-12 05:36:00,40.3,35.6,29.92,SSW,197,0.0,0.0,83,0.00,,,0.00,WeatherCatV1.14B232,2013-06-12 11:36:00,
2013-06-12 05:41:00,39.9,34.6,29.92,SSE,156,0.0,0.0,81,0.00,,,0.00,WeatherCatV1.14B232,2013-06-12 11:41:00,
2013-06-12 05:46:00,39.9,34.2,29.92,South,187,0.0,1.0,80,0.00,,,0.00,WeatherCatV1.14B232,2013-06-12 11:46:00,
2013-06-12 05:51:00,39.9,34.2,29.93,East,85,0.0,1.0,80,0.00,,,0.00,WeatherCatV1.14B232,2013-06-12 11:51:00,
2013-06-12 05:56:00,39.9,34.6,29.93,SSW,210,0.0,1.0,81,0.00,,,0.00,WeatherCatV1.14B232,2013-06-12 11:56:00,
2013-06-12 06:01:00,39.8,34.5,29.93,SSW,198,0.0,3.0,81,0.00,,,0.00,WeatherCatV1.14B232,2013-06-12 12:01:00,
2013-06-12 06:06:00,39.6,34.3,29.93,South,186,1.0,2.0,81,0.00,,,0.00,WeatherCatV1.14B232,2013-06-12 12:06:00,
2013-06-12 06:11:00,39.7,33.4,29.93,SSE,164,0.0,0.0,78,0.00,,,0.00,WeatherCatV1.14B232,2013-06-12 12:11:00,
2013-06-12 06:16:00,40.1,34.1,29.93,SSE,164,0.0,1.0,79,0.00,,,0.00,WeatherCatV1.14B232,2013-06-12 12:16:00,
2013-06-12 06:21:00,40.5,33.9,29.93,East,101,0.0,1.0,77,0.00,,,0.00,WeatherCatV1.14B232,2013-06-12 12:21:00,
2013-06-12 06:26:00,41.2,33.9,29.94,ESE,102,0.0,0.0,75,0.00,,,0.00,WeatherCatV1.14B232,2013-06-12 12:26:00,
2013-06-12 06:31:00,42.1,35.1,29.94,SSW,197,0.0,0.0,76,0.00,,,0.00,WeatherCatV1.14B232,2013-06-12 12:31:00,
2013-06-12 06:36:00,42.9,34.9,29.94,SW,229,0.0,1.0,73,0.00,,,0.00,WeatherCatV1.14B232,2013-06-12 12:36:00,
2013-06-12 06:41:00,44.4,34.9,29.94,ESE,103,0.0,1.0,69,0.00,,,0.00,WeatherCatV1.14B232,2013-06-12 12:41:00,
2013-06-12 06:46:00,46.0,35.3,29.94,ESE,103,0.0,0.0,66,0.00,,,0.00,WeatherCatV1.14B232,2013-06-12 12:46:00,
2013-06-12 06:51:00,47.1,35.6,29.94,ESE,106,0.0,0.0,64,0.00,,,0.00,WeatherCatV1.14B232,2013-06-12 12:51:00,
2013-06-12 06:56:00,47.1,35.2,29.94,WSW,249,0.0,1.0,63,0.00,,,0.00,WeatherCatV1.14B232,2013-06-12 12:56:00,
2013-06-12 07:01:00,47.9,35.1,29.95,WSW,249,0.0,0.0,61,0.00,,,0.00,WeatherCatV1.14B232,2013-06-12 13:01:00,
2013-06-12 07:06:00,49.3,34.7,29.94,SSE,160,1.0,1.0,57,0.00,,,0.00,WeatherCatV1.14B232,2013-06-12 13:06:00,
2013-06-12 07:11:00,50.0,34.9,29.94,SSE,155,0.0,1.0,56,0.00,,,0.00,WeatherCatV1.14B232,2013-06-12 13:11:00,
2013-06-12 07:16:00,51.1,35.5,29.95,East,94,0.0,1.0,55,0.00,,,0.00,WeatherCatV1.14B232,2013-06-12 13:16:00,
2013-06-12 07:21:00,52.5,35.9,29.94,East,94,0.0,0.0,53,0.00,,,0.00,WeatherCatV1.14B232,2013-06-12 13:21:00,
2013-06-12 07:26:00,53.8,35.6,29.94,South,170,0.0,1.0,50,0.00,,,0.00,WeatherCatV1.14B232,2013-06-12 13:26:00,
2013-06-12 07:31:00,54.4,36.7,29.94,SSE,165,0.0,1.0,51,0.00,,,0.00,WeatherCatV1.14B232,2013-06-12 13:31:00,
2013-06-12 07:36:00,55.2,36.4,29.93,East,84,0.0,1.0,49,0.00,,,0.00,WeatherCatV1.14B232,2013-06-12 13:36:00,
2013-06-12 07:41:00,56.6,36.6,29.93,East,85,0.0,0.0,47,0.00,,,0.00,WeatherCatV1.14B232,2013-06-12 13:41:00,
2013-06-12 07:46:00,57.4,33.9,29.93,ESE,115,0.0,1.0,41,0.00,,,0.00,WeatherCatV1.14B232,2013-06-12 13:46:00,
2013-06-12 07:51:00,57.3,34.4,29.93,East,96,0.0,0.0,42,0.00,,,0.00,WeatherCatV1.14B232,2013-06-12 13:51:00,
2013-06-12 07:56:00,57.4,35.1,29.93,NE,40,0.0,0.0,43,0.00,,,0.00,WeatherCatV1.14B232,2013-06-12 13:56:00,
2013-06-12 08:01:00,57.6,34.1,29.93,East,84,0.0,1.0,41,0.00,,,0.00,WeatherCatV1.14B232,2013-06-12 14:01:00,
2013-06-12 08:06:00,57.7,34.8,29.93,South,172,0.0,1.0,42,0.00,,,0.00,WeatherCatV1.14B232,2013-06-12 14:06:00,
2013-06-12 08:11:00,58.0,35.6,29.93,SW,233,0.0,1.0,43,0.00,,,0.00,WeatherCatV1.14B232,2013-06-12 14:11:00,
2013-06-12 08:16:00,58.0,36.2,29.93,NNE,23,0.0,1.0,44,0.00,,,0.00,WeatherCatV1.14B232,2013-06-12 14:16:00,
2013-06-12 08:21:00,58.7,34.4,29.93,NNE,22,0.0,1.0,40,0.00,,,0.00,WeatherCatV1.14B232,2013-06-12 14:21:00,
2013-06-12 08:26:00,58.6,35.0,29.93,NE,46,1.0,1.0,41,0.00,,,0.00,WeatherCatV1.14B232,2013-06-12 14:26:00,
2013-06-12 08:31:00,58.8,35.8,29.93,ENE,70,0.0,1.0,42,0.00,,,0.00,WeatherCatV1.14B232,2013-06-12 14:31:00,
2013-06-12 08:36:00,59.5,35.8,29.93,ENE,71,0.0,0.0,41,0.00,,,0.00,WeatherCatV1.14B232,2013-06-12 14:36:00,
2013-06-12 08:41:00,59.9,34.9,29.93,East,88,0.0,0.0,39,0.00,,,0.00,WeatherCatV1.14B232,2013-06-12 14:41:00,
2013-06-12 08:46:00,60.7,35.6,29.92,NE,34,0.0,0.0,39,0.00,,,0.00,WeatherCatV1.14B232,2013-06-12 14:46:00,
2013-06-12 08:51:00,62.0,36.1,29.92,NE,43,0.0,0.0,38,0.00,,,0.00,WeatherCatV1.14B232,2013-06-12 14:51:00,
2013-06-12 08:56:00,62.4,34.4,29.92,East,84,1.0,2.0,35,0.00,,,0.00,WeatherCatV1.14B232,2013-06-12 14:56:00,
2013-06-12 09:01:00,62.6,34.6,29.92,ESE,109,0.0,2.0,35,0.00,,,0.00,WeatherCatV1.14B232,2013-06-12 15:01:00,
2013-06-12 09:06:00,63.2,34.4,29.92,NW,308,0.0,1.0,34,0.00,,,0.00,WeatherCatV1.14B232,2013-06-12 15:06:00,
2013-06-12 09:11:00,64.2,34.5,29.92,East,85,1.0,1.0,33,0.00,,,0.00,WeatherCatV1.14B232,2013-06-12 15:11:00,
2013-06-12 09:16:00,63.9,33.5,29.91,NNW,340,1.0,1.0,32,0.00,,,0.00,WeatherCatV1.14B232,2013-06-12 15:16:00,
2013-06-12 09:21:00,63.7,35.5,29.91,NNW,345,0.0,0.0,35,0.00,,,0.00,WeatherCatV1.14B232,2013-06-12 15:21:00,
2013-06-12 09:26:00,64.2,35.2,29.91,NNE,31,1.0,1.0,34,0.00,,,0.00,WeatherCatV1.14B232,2013-06-12 15:26:00,
2013-06-12 09:31:00,64.8,34.2,29.91,ESE,110,0.0,1.0,32,0.00,,,0.00,WeatherCatV1.14B232,2013-06-12 15:31:00,
2013-06-12 09:36:00,65.7,35.0,29.91,NE,44,2.0,3.0,32,0.00,,,0.00,WeatherCatV1.14B232,2013-06-12 15:36:00,
2013-06-12 09:41:00,65.6,33.3,29.91,NE,47,0.0,0.0,30,0.00,,,0.00,WeatherCatV1.14B232,2013-06-12 15:41:00,
2013-06-12 09:46:00,66.5,33.3,29.91,North,353,1.0,2.0,29,0.00,,,0.00,WeatherCatV1.14B232,2013-06-12 15:46:00,
2013-06-12 09:51:00,66.7,32.6,29.90,NNE,30,1.0,1.0,28,0.00,,,0.00,WeatherCatV1.14B232,2013-06-12 15:51:00,
2013-06-12 09:56:00,67.8,34.4,29.90,North,9,0.0,1.0,29,0.00,,,0.00,WeatherCatV1.14B232,2013-06-12 15:56:00,
2013-06-12 10:01:00,68.4,34.0,29.90,NNE,31,1.0,1.0,28,0.00,,,0.00,WeatherCatV1.14B232,2013-06-12 16:01:00,
2013-06-12 10:06:00,69.0,34.5,29.90,SE,138,0.0,1.0,28,0.00,,,0.00,WeatherCatV1.14B232,2013-06-12 16:06:00,
2013-06-12 10:11:00,69.9,33.4,29.90,North,9,1.0,2.0,26,0.00,,,0.00,WeatherCatV1.14B232,2013-06-12 16:11:00,
2013-06-12 10:16:00,70.1,36.4,29.89,ENE,71,0.0,1.0,29,0.00,,,0.00,WeatherCatV1.14B232,2013-06-12 16:16:00,
2013-06-12 10:21:00,71.1,34.5,29.89,East,98,1.0,3.0,26,0.00,,,0.00,WeatherCatV1.14B232,2013-06-12 16:21:00,
2013-06-12 10:26:00,71.7,33.0,29.89,SSE,163,1.0,2.0,24,0.00,,,0.00,WeatherCatV1.14B232,2013-06-12 16:26:00,
2013-06-12 10:31:00,72.0,34.2,29.88,SE,136,1.0,2.0,25,0.00,,,0.00,WeatherCatV1.14B232,2013-06-12 16:31:00,
2013-06-12 10:36:00,72.2,35.4,29.88,WSW,252,1.0,1.0,26,0.00,,,0.00,WeatherCatV1.14B232,2013-06-12 16:36:00,
2013-06-12 10:40:00,72.8,35.9,29.88,SE,132,1.0,2.0,26,0.00,,,0.00,WeatherCatV1.14B232,2013-06-12 16:40:00,
2013-06-12 10:45:00,73.5,35.5,29.88,West,276,0.0,1.0,25,0.00,,,0.00,WeatherCatV1.14B232,2013-06-12 16:45:00,
2013-06-12 10:50:00,74.2,37.1,29.87,NNW,345,1.0,3.0,26,0.00,,,0.00,WeatherCatV1.14B232,2013-06-12 16:50:00,
2013-06-12 10:55:00,73.8,35.8,29.87,NW,323,0.0,2.0,25,0.00,,,0.00,WeatherCatV1.14B232,2013-06-12 16:55:00,
2013-06-12 11:00:00,74.3,37.2,29.86,North,8,2.0,2.0,26,0.00,,,0.00,WeatherCatV1.14B232,2013-06-12 17:00:00,
2013-06-12 11:05:00,74.9,39.6,29.86,SW,231,0.0,0.0,28,0.00,,,0.00,WeatherCatV1.14B232,2013-06-12 17:05:00,
2013-06-12 11:10:00,76.1,36.7,29.86,South,191,1.0,2.0,24,0.00,,,0.00,WeatherCatV1.14B232,2013-06-12 17:10:00,
2013-06-12 11:15:00,77.1,37.5,29.86,South,186,0.0,1.0,24,0.00,,,0.00,WeatherCatV1.14B232,2013-06-12 17:15:00,
2013-06-12 11:20:00,77.4,34.4,29.85,East,86,1.0,1.0,21,0.00,,,0.00,WeatherCatV1.14B232,2013-06-12 17:20:00,
2013-06-12 11:25:00,77.4,35.6,29.85,East,84,1.0,2.0,22,0.00,,,0.00,WeatherCatV1.14B232,2013-06-12 17:25:00,
2013-06-12 11:30:00,77.7,36.9,29.85,SE,135,1.0,1.0,23,0.00,,,0.00,WeatherCatV1.14B232,2013-06-12 17:30:00,
2013-06-12 11:35:00,77.8,35.9,29.85,ESE,119,2.0,3.0,22,0.00,,,0.00,WeatherCatV1.14B232,2013-06-12 17:35:00,
2013-06-12 11:40:00,79.0,38.0,29.84,SSE,162,3.0,3.0,23,0.00,,,0.00,WeatherCatV1.14B232,2013-06-12 17:40:00,
2013-06-12 11:45:00,79.8,33.9,29.84,NNW,343,2.0,2.0,19,0.00,,,0.00,WeatherCatV1.14B232,2013-06-12 17:45:00,
2013-06-12 11:50:00,79.8,33.9,29.84,ENE,57,2.0,3.0,19,0.00,,,0.00,WeatherCatV1.14B232,2013-06-12 17:50:00,
2013-06-12 11:55:00,80.1,35.4,29.83,SE,129,2.0,4.0,20,0.00,,,0.00,WeatherCatV1.14B232,2013-06-12 17:55:00,
2013-06-12 12:00:00,80.1,36.6,29.83,East,91,2.0,2.0,21,0.00,,,0.00,WeatherCatV1.14B232,2013-06-12 18:00:00,
2013-06-12 12:05:00,80.7,34.6,29.83,ENE,63,1.0,1.0,19,0.00,,,0.00,WeatherCatV1.14B232,2013-06-12 18:05:00,
2013-06-12 12:10:00,81.1,36.2,29.83,North,1,2.0,3.0,20,0.00,,,0.00,WeatherCatV1.14B232,2013-06-12 18:10:00,
2013-06-12 12:15:00,82.4,36.0,29.82,ENE,77,1.0,3.0,19,0.00,,,0.00,WeatherCatV1.14B232,2013-06-12 18:15:00,
2013-06-12 12:20:00,83.8,37.1,29.82,WNW,282,2.0,2.0,19,0.00,,,0.00,WeatherCatV1.14B232,2013-06-12 18:20:00,
2013-06-12 12:25:00,84.3,37.5,29.82,West,261,2.0,3.0,19,0.00,,,0.00,WeatherCatV1.14B232,2013-06-12 18:25:00,
2013-06-12 12:30:00,84.9,33.7,29.81,NW,322,4.0,7.0,16,0.00,,,0.00,WeatherCatV1.14B232,2013-06-12 18:30:00,
2013-06-12 12:35:00,84.8,39.2,29.81,WNW,301,3.0,3.0,20,0.00,,,0.00,WeatherCatV1.14B232,2013-06-12 18:35:00,
2013-06-12 12:40:00,84.7,40.4,29.81,NE,40,2.0,4.0,21,0.00,,,0.00,WeatherCatV1.14B232,2013-06-12 18:40:00,
2013-06-12 12:45:00,84.8,30.3,29.81,SE,124,3.0,10.0,14,0.00,,,0.00,WeatherCatV1.14B232,2013-06-12 18:45:00,
2013-06-12 12:50:00,86.0,29.4,29.81,SSE,158,10.0,22.0,13,0.00,,,0.00,WeatherCatV1.14B232,2013-06-12 18:50:00,
2013-06-12 12:55:00,85.9,29.3,29.80,SSW,212,3.0,14.0,13,0.00,,,0.00,WeatherCatV1.14B232,2013-06-12 18:55:00,
2013-06-12 13:00:00,85.9,27.4,29.81,SW,229,8.0,12.0,12,0.00,,,0.00,WeatherCatV1.14B232,2013-06-12 19:00:00,
2013-06-12 13:05:00,85.9,27.4,29.81,South,186,6.0,11.0,12,0.00,,,0.00,WeatherCatV1.14B232,2013-06-12 19:05:00,
2013-06-12 13:10:00,85.8,25.2,29.81,WSW,253,2.0,15.0,11,0.00,,,0.00,WeatherCatV1.14B232,2013-06-12 19:10:00,
2013-06-12 13:15:00,86.1,27.5,29.80,South,172,6.0,14.0,12,0.00,,,0.00,WeatherCatV1.14B232,2013-06-12 19:15:00,
2013-06-12 13:20:00,85.9,27.4,29.80,South,176,9.0,17.0,12,0.00,,,0.00,WeatherCatV1.14B232,2013-06-12 19:20:00,
2013-06-12 13:25:00,85.9,27.4,29.80,SSW,201,8.0,8.0,12,0.00,,,0.00,WeatherCatV1.14B232,2013-06-12 19:25:00,
2013-06-12 13:30:00,86.3,29.6,29.80,West,269,5.0,8.0,13,0.00,,,0.00,WeatherCatV1.14B232,2013-06-12 19:30:00,
2013-06-12 13:35:00,87.3,30.4,29.80,WNW,285,1.0,7.0,13,0.00,,,0.00,WeatherCatV1.14B232,2013-06-12 19:35:00,
2013-06-12 13:40:00,87.2,26.3,29.80,SSE,165,4.0,6.0,11,0.00,,,0.00,WeatherCatV1.14B232,2013-06-12 19:40:00,
2013-06-12 13:45:00,87.0,32.0,29.79,SSE,166,7.0,10.0,14,0.00,,,0.00,WeatherCatV1.14B232,2013-06-12 19:45:00,
2013-06-12 13:50:00,87.1,26.2,29.79,SSW,212,2.0,6.0,11,0.00,,,0.00,WeatherCatV1.14B232,2013-06-12 19:50:00,
2013-06-12 13:55:00,87.4,26.4,29.79,South,178,8.0,13.0,11,0.00,,,0.00,WeatherCatV1.14B232,2013-06-12 19:55:00,
2013-06-12 14:00:00,87.6,30.7,29.79,South,179,5.0,10.0,13,0.00,,,0.00,WeatherCatV1.14B232,2013-06-12 20:00:00,
2013-06-12 14:05:00,87.9,24.5,29.79,SW,214,9.0,11.0,10,0.00,,,0.00,WeatherCatV1.14B232,2013-06-12 20:05:00,
2013-06-12 14:10:00,88.3,29.2,29.80,South,170,9.0,17.0,12,0.00,,,0.00,WeatherCatV1.14B232,2013-06-12 20:10:00,
2013-06-12 14:15:00,87.8,24.5,29.80,West,267,7.0,15.0,10,0.00,,,0.00,WeatherCatV1.14B232,2013-06-12 20:15:00,
2013-06-12 14:20:00,87.2,24.0,29.79,WSW,253,4.0,11.0,10,0.00,,,0.00,WeatherCatV1.14B232,2013-06-12 20:20:00,
2013-06-12 14:25:00,87.7,26.7,29.79,SW,236,1.0,2.0,11,0.00,,,0.00,WeatherCatV1.14B232,2013-06-12 20:25:00,
2013-06-12 14:30:00,88.2,24.8,29.79,SSW,207,8.0,13.0,10,0.00,,,0.00,WeatherCatV1.14B232,2013-06-12 20:30:00,
2013-06-12 14:35:00,88.4,27.2,29.78,SSE,162,5.0,17.0,11,0.00,,,0.00,WeatherCatV1.14B232,2013-06-12 20:35:00,
2013-06-12 14:40:00,88.4,27.2,29.78,West,264,3.0,3.0,11,0.00,,,0.00,WeatherCatV1.14B232,2013-06-12 20:40:00,
2013-06-12 14:45:00,88.4,27.2,29.78,South,184,9.0,16.0,11,0.00,,,0.00,WeatherCatV1.14B232,2013-06-12 20:45:00,
2013-06-12 14:50:00,88.0,24.6,29.78,SE,136,11.0,16.0,10,0.00,,,0.00,WeatherCatV1.14B232,2013-06-12 20:50:00,
2013-06-12 14:55:00,87.6,26.6,29.78,South,184,7.0,23.0,11,0.00,,,0.00,WeatherCatV1.14B232,2013-06-12 20:55:00,
2013-06-12 15:00:00,87.5,24.2,29.78,South,169,15.0,23.0,10,0.00,,,0.00,WeatherCatV1.14B232,2013-06-12 21:00:00,
2013-06-12 15:05:00,87.5,24.2,29.78,WSW,248,5.0,15.0,10,0.00,,,0.00,WeatherCatV1.14B232,2013-06-12 21:05:00,
2013-06-12 15:10:00,87.8,26.7,29.78,WSW,255,11.0,11.0,11,0.00,,,0.00,WeatherCatV1.14B232,2013-06-12 21:10:00,
2013-06-12 15:15:00,88.2,24.8,29.78,SSW,200,5.0,12.0,10,0.00,,,0.00,WeatherCatV1.14B232,2013-06-12 21:15:00,
2013-06-12 15:20:00,88.4,24.9,29.78,WSW,239,3.0,9.0,10,0.00,,,0.00,WeatherCatV1.14B232,2013-06-12 21:20:00,
2013-06-12 15:25:00,87.9,24.5,29.78,SSW,203,4.0,13.0,10,0.00,,,0.00,WeatherCatV1.14B232,2013-06-12 21:25:00,
2013-06-12 15:30:00,87.8,26.7,29.78,WSW,250,2.0,10.0,11,0.00,,,0.00,WeatherCatV1.14B232,2013-06-12 21:30:00,
2013-06-12 15:35:00,87.4,24.1,29.77,NNE,13,6.0,6.0,10,0.00,,,0.00,WeatherCatV1.14B232,2013-06-12 21:35:00,
2013-06-12 15:40:00,87.6,28.7,29.77,SSW,204,4.0,9.0,12,0.00,,,0.00,WeatherCatV1.14B232,2013-06-12 21:40:00,
2013-06-12 15:45:00,87.6,28.7,29.77,WNW,295,2.0,7.0,12,0.00,,,0.00,WeatherCatV1.14B232,2013-06-12 21:45:00,
2013-06-12 15:50:00,87.8,21.9,29.78,WSW,255,10.0,11.0,9,0.00,,,0.00,WeatherCatV1.14B232,2013-06-12 21:50:00,
2013-06-12 15:55:00,87.3,24.1,29.78,SSE,165,6.0,19.0,10,0.00,,,0.00,WeatherCatV1.14B232,2013-06-12 21:55:00,
2013-06-12 16:00:00,87.2,28.4,29.78,WSW,253,6.0,6.0,12,0.00,,,0.00,WeatherCatV1.14B232,2013-06-12 22:00:00,
2013-06-12 16:05:00,87.4,26.4,29.77,South,170,7.0,10.0,11,0.00,,,0.00,WeatherCatV1.14B232,2013-06-12 22:05:00,
2013-06-12 16:10:00,87.3,26.4,29.77,West,276,6.0,11.0,11,0.00,,,0.00,WeatherCatV1.14B232,2013-06-12 22:10:00,
2013-06-12 16:15:00,87.3,26.4,29.77,SSW,200,5.0,14.0,11,0.00,,,0.00,WeatherCatV1.14B232,2013-06-12 22:15:00,
2013-06-12 16:20:00,87.4,24.1,29.77,North,354,3.0,16.0,10,0.00,,,0.00,WeatherCatV1.14B232,2013-06-12 22:20:00,
2013-06-12 16:25:00,87.4,26.4,29.77,SW,231,2.0,6.0,11,0.00,,,0.00,WeatherCatV1.14B232,2013-06-12 22:25:00,
2013-06-12 16:30:00,87.8,28.9,29.76,East,89,2.0,5.0,12,0.00,,,0.00,WeatherCatV1.14B232,2013-06-12 22:30:00,
2013-06-12 16:35:00,87.7,24.4,29.77,SSW,203,8.0,12.0,10,0.00,,,0.00,WeatherCatV1.14B232,2013-06-12 22:35:00,
2013-06-12 16:40:00,87.4,24.1,29.76,West,280,1.0,4.0,10,0.00,,,0.00,WeatherCatV1.14B232,2013-06-12 22:40:00,
2013-06-12 16:45:00,87.2,30.4,29.76,SSE,167,4.0,4.0,13,0.00,,,0.00,WeatherCatV1.14B232,2013-06-12 22:45:00,
2013-06-12 16:50:00,87.0,26.1,29.76,WNW,284,3.0,7.0,11,0.00,,,0.00,WeatherCatV1.14B232,2013-06-12 22:50:00,
2013-06-12 16:55:00,87.1,28.3,29.76,WSW,243,1.0,9.0,12,0.00,,,0.00,WeatherCatV1.14B232,2013-06-12 22:55:00,
2013-06-12 17:00:00,86.8,28.1,29.76,South,186,3.0,5.0,12,0.00,,,0.00,WeatherCatV1.14B232,2013-06-12 23:00:00,
2013-06-12 17:05:00,86.4,27.8,29.76,SW,229,5.0,6.0,12,0.00,,,0.00,WeatherCatV1.14B232,2013-06-12 23:05:00,
2013-06-12 17:10:00,86.0,27.5,29.76,SSE,157,2.0,8.0,12,0.00,,,0.00,WeatherCatV1.14B232,2013-06-12 23:10:00,
2013-06-12 17:15:00,85.8,25.2,29.76,SSE,155,6.0,12.0,11,0.00,,,0.00,WeatherCatV1.14B232,2013-06-12 23:15:00,
2013-06-12 17:20:00,85.6,25.1,29.76,SW,225,6.0,7.0,11,0.00,,,0.00,WeatherCatV1.14B232,2013-06-12 23:20:00,
2013-06-12 17:25:00,85.4,22.6,29.76,SSE,152,2.0,5.0,10,0.00,,,0.00,WeatherCatV1.14B232,2013-06-12 23:25:00,
2013-06-12 17:30:00,85.2,24.8,29.76,West,266,2.0,2.0,11,0.00,,,0.00,WeatherCatV1.14B232,2013-06-12 23:30:00,
2013-06-12 17:35:00,85.0,24.6,29.76,SSE,162,3.0,8.0,11,0.00,,,0.00,WeatherCatV1.14B232,2013-06-12 23:35:00,
2013-06-12 17:40:00,84.9,24.5,29.76,SSE,162,3.0,5.0,11,0.00,,,0.00,WeatherCatV1.14B232,2013-06-12 23:40:00,
2013-06-12 17:45:00,84.8,24.4,29.76,WSW,249,5.0,7.0,11,0.00,,,0.00,WeatherCatV1.14B232,2013-06-12 23:45:00,
2013-06-12 17:50:00,84.7,26.5,29.76,SW,221,5.0,7.0,12,0.00,,,0.00,WeatherCatV1.14B232,2013-06-12 23:50:00,
2013-06-12 17:55:00,84.7,22.1,29.76,SSW,197,3.0,6.0,10,0.00,,,0.00,WeatherCatV1.14B232,2013-06-12 23:55:00,
2013-06-12 18:00:00,84.6,24.3,29.76,SW,221,3.0,6.0,11,0.00,,,0.00,WeatherCatV1.14B232,2013-06-13 00:00:00,
2013-06-12 18:05:00,84.5,24.2,29.76,SSW,201,6.0,7.0,11,0.00,,,0.00,WeatherCatV1.14B232,2013-06-13 00:05:00,
2013-06-12 18:10:00,84.3,24.1,29.76,SW,233,4.0,8.0,11,0.00,,,0.00,WeatherCatV1.14B232,2013-06-13 00:10:00,
2013-06-12 18:15:00,84.1,26.0,29.76,West,259,4.0,6.0,12,0.00,,,0.00,WeatherCatV1.14B232,2013-06-13 00:15:00,
2013-06-12 18:20:00,83.9,25.8,29.76,South,190,2.0,4.0,12,0.00,,,0.00,WeatherCatV1.14B232,2013-06-13 00:20:00,
2013-06-12 18:25:00,83.6,23.5,29.76,WSW,253,1.0,6.0,11,0.00,,,0.00,WeatherCatV1.14B232,2013-06-13 00:25:00,
2013-06-12 18:30:00,83.3,25.4,29.76,WSW,242,4.0,6.0,12,0.00,,,0.00,WeatherCatV1.14B232,2013-06-13 00:30:00,
2013-06-12 18:35:00,83.1,27.2,29.76,SW,220,1.0,1.0,13,0.00,,,0.00,WeatherCatV1.14B232,2013-06-13 00:35:00,
2013-06-12 18:40:00,83.0,25.1,29.77,WNW,293,0.0,6.0,12,0.00,,,0.00,WeatherCatV1.14B232,2013-06-13 00:40:00,
2013-06-12 18:45:00,82.8,22.9,29.77,SSE,156,2.0,5.0,11,0.00,,,0.00,WeatherCatV1.14B232,2013-06-13 00:45:00,
2013-06-12 18:50:00,82.6,24.8,29.77,SW,231,1.0,4.0,12,0.00,,,0.00,WeatherCatV1.14B232,2013-06-13 00:50:00,
2013-06-12 18:55:00,82.2,26.5,29.77,SSE,158,2.0,3.0,13,0.00,,,0.00,WeatherCatV1.14B232,2013-06-13 00:55:00,
2013-06-12 19:00:00,82.1,29.9,29.77,West,270,1.0,2.0,15,0.00,,,0.00,WeatherCatV1.14B232,2013-06-13 01:00:00,
2013-06-12 19:05:00,81.4,29.3,29.77,SW,214,0.0,2.0,15,0.00,,,0.00,WeatherCatV1.14B232,2013-06-13 01:05:00,
2013-06-12 19:10:00,81.1,27.4,29.77,WSW,238,1.0,2.0,14,0.00,,,0.00,WeatherCatV1.14B232,2013-06-13 01:10:00,
2013-06-12 19:15:00,80.9,27.2,29.77,SSW,208,1.0,3.0,14,0.00,,,0.00,WeatherCatV1.14B232,2013-06-13 01:15:00,
2013-06-12 19:20:00,80.5,28.6,29.77,WSW,246,2.0,4.0,15,0.00,,,0.00,WeatherCatV1.14B232,2013-06-13 01:20:00,
2013-06-12 19:26:00,80.4,26.8,29.78,WSW,255,1.0,3.0,14,0.00,,,0.00,WeatherCatV1.14B232,2013-06-13 01:26:00,
2013-06-12 19:31:00,80.2,26.7,29.78,South,187,2.0,2.0,14,0.00,,,0.00,WeatherCatV1.14B232,2013-06-13 01:31:00,
2013-06-12 19:36:00,79.8,26.4,29.78,West,262,2.0,2.0,14,0.00,,,0.00,WeatherCatV1.14B232,2013-06-13 01:36:00,
2013-06-12 19:41:00,79.2,30.6,29.78,WSW,251,3.0,3.0,17,0.00,,,0.00,WeatherCatV1.14B232,2013-06-13 01:41:00,
2013-06-12 19:46:00,78.3,29.9,29.78,West,274,2.0,4.0,17,0.00,,,0.00,WeatherCatV1.14B232,2013-06-13 01:46:00,
2013-06-12 19:51:00,77.6,30.7,29.78,SW,224,2.0,3.0,18,0.00,,,0.00,WeatherCatV1.14B232,2013-06-13 01:51:00,
2013-06-12 19:56:00,77.1,30.3,29.78,WSW,253,2.0,3.0,18,0.00,,,0.00,WeatherCatV1.14B232,2013-06-13 01:56:00,
2013-06-12 20:01:00,76.8,30.1,29.78,WSW,242,2.0,3.0,18,0.00,,,0.00,WeatherCatV1.14B232,2013-06-13 02:01:00,
2013-06-12 20:06:00,76.3,29.7,29.78,SW,224,1.0,3.0,18,0.00,,,0.00,WeatherCatV1.14B232,2013-06-13 02:06:00,
2013-06-12 20:11:00,75.9,29.3,29.78,WSW,256,3.0,4.0,18,0.00,,,0.00,WeatherCatV1.14B232,2013-06-13 02:11:00,
2013-06-12 20:16:00,75.4,28.9,29.78,WSW,237,0.0,2.0,18,0.00,,,0.00,WeatherCatV1.14B232,2013-06-13 02:16:00,
2013-06-12 20:21:00,75.4,26.1,29.78,West,270,0.0,3.0,16,0.00,,,0.00,WeatherCatV1.14B232,2013-06-13 02:21:00,
2013-06-12 20:26:00,75.2,31.4,29.78,WSW,242,1.0,1.0,20,0.00,,,0.00,WeatherCatV1.14B232,2013-06-13 02:26:00,
2013-06-12 20:31:00,74.4,30.7,29.78,ESE,108,0.0,1.0,20,0.00,,,0.00,WeatherCatV1.14B232,2013-06-13 02:31:00,
2013-06-12 20:36:00,73.4,31.1,29.79,East,80,0.0,1.0,21,0.00,,,0.00,WeatherCatV1.14B232,2013-06-13 02:36:00,
2013-06-12 20:41:00,72.7,31.7,29.79,SE,146,0.0,0.0,22,0.00,,,0.00,WeatherCatV1.14B232,2013-06-13 02:41:00,
2013-06-12 20:46:00,72.3,31.3,29.79,ESE,115,0.0,1.0,22,0.00,,,0.00,WeatherCatV1.14B232,2013-06-13 02:46:00,
2013-06-12 20:51:00,71.7,33.0,29.79,WSW,242,1.0,1.0,24,0.00,,,0.00,WeatherCatV1.14B232,2013-06-13 02:51:00,
2013-06-12 20:56:00,71.1,30.3,29.79,West,262,1.0,1.0,22,0.00,,,0.00,WeatherCatV1.14B232,2013-06-13 02:56:00,
2013-06-12 21:01:00,70.7,31.1,29.79,West,262,0.0,1.0,23,0.00,,,0.00,WeatherCatV1.14B232,2013-06-13 03:01:00,
2013-06-12 21:06:00,69.9,33.4,29.80,SE,146,0.0,0.0,26,0.00,,,0.00,WeatherCatV1.14B232,2013-06-13 03:06:00,
2013-06-12 21:11:00,69.0,36.3,29.80,SE,143,0.0,1.0,30,0.00,,,0.00,WeatherCatV1.14B232,2013-06-13 03:11:00,
2013-06-12 21:16:00,67.7,37.6,29.80,ESE,115,0.0,1.0,33,0.00,,,0.00,WeatherCatV1.14B232,2013-06-13 03:16:00,
2013-06-12 21:21:00,66.8,39.7,29.80,ESE,115,0.0,1.0,37,0.00,,,0.00,WeatherCatV1.14B232,2013-06-13 03:21:00,
2013-06-12 21:26:00,65.7,38.7,29.80,ESE,115,0.0,0.0,37,0.00,,,0.00,WeatherCatV1.14B232,2013-06-13 03:26:00,
2013-06-12 21:31:00,65.0,40.1,29.80,SSE,151,0.0,0.0,40,0.00,,,0.00,WeatherCatV1.14B232,2013-06-13 03:31:00,
2013-06-12 21:36:00,64.5,34.8,29.80,South,169,0.0,1.0,33,0.00,,,0.00,WeatherCatV1.14B232,2013-06-13 03:36:00,
2013-06-12 21:41:00,64.3,39.5,29.81,South,169,0.0,0.0,40,0.00,,,0.00,WeatherCatV1.14B232,2013-06-13 03:41:00,
2013-06-12 21:46:00,63.6,40.7,29.81,South,191,0.0,0.0,43,0.00,,,0.00,WeatherCatV1.14B232,2013-06-13 03:46:00,
2013-06-12 21:51:00,62.8,40.0,29.81,East,100,0.0,1.0,43,0.00,,,0.00,WeatherCatV1.14B232,2013-06-13 03:51:00,
2013-06-12 21:56:00,62.3,40.1,29.81,East,100,0.0,0.0,44,0.00,,,0.00,WeatherCatV1.14B232,2013-06-13 03:56:00,
2013-06-12 22:01:00,61.8,40.8,29.81,East,100,0.0,0.0,46,0.00,,,0.00,WeatherCatV1.14B232,2013-06-13 04:01:00,
2013-06-12 22:06:00,61.4,41.0,29.81,East,100,0.0,0.0,47,0.00,,,0.00,WeatherCatV1.14B232,2013-06-13 04:06:00,
2013-06-12 22:11:00,61.1,41.3,29.81,East,100,0.0,0.0,48,0.00,,,0.00,WeatherCatV1.14B232,2013-06-13 04:11:00,
2013-06-12 22:16:00,60.9,41.1,29.81,East,101,0.0,0.0,48,0.00,,,0.00,WeatherCatV1.14B232,2013-06-13 04:16:00,
2013-06-12 22:21:00,60.6,39.1,29.82,East,101,0.0,0.0,45,0.00,,,0.00,WeatherCatV1.14B232,2013-06-13 04:21:00,
2013-06-12 22:26:00,60.5,40.7,29.82,WSW,243,0.0,1.0,48,0.00,,,0.00,WeatherCatV1.14B232,2013-06-13 04:26:00,
2013-06-12 22:31:00,60.4,38.4,29.82,SSE,152,1.0,1.0,44,0.00,,,0.00,WeatherCatV1.14B232,2013-06-13 04:31:00,
2013-06-12 22:36:00,60.1,39.8,29.82,SSE,153,0.0,0.0,47,0.00,,,0.00,WeatherCatV1.14B232,2013-06-13 04:36:00,
2013-06-12 22:41:00,59.9,40.7,29.82,SSE,153,0.0,0.0,49,0.00,,,0.00,WeatherCatV1.14B232,2013-06-13 04:41:00,
2013-06-12 22:46:00,59.6,40.4,29.82,SSE,152,0.0,0.0,49,0.00,,,0.00,WeatherCatV1.14B232,2013-06-13 04:46:00,
2013-06-12 22:51:00,59.2,40.0,29.82,SSE,152,0.0,0.0,49,0.00,,,0.00,WeatherCatV1.14B232,2013-06-13 04:51:00,
2013-06-12 22:56:00,58.7,39.6,29.82,SSE,153,0.0,0.0,49,0.00,,,0.00,WeatherCatV1.14B232,2013-06-13 04:56:00,
2013-06-12 23:01:00,58.3,40.2,29.82,SSE,152,0.0,0.0,51,0.00,,,0.00,WeatherCatV1.14B232,2013-06-13 05:01:00,
2013-06-12 23:06:00,57.9,40.9,29.82,SSE,152,0.0,0.0,53,0.00,,,0.00,WeatherCatV1.14B232,2013-06-13 05:06:00,
2013-06-12 23:11:00,57.5,42.4,29.82,WSW,243,1.0,2.0,57,0.00,,,0.00,WeatherCatV1.14B232,2013-06-13 05:11:00,
2013-06-12 23:16:00,56.9,39.5,29.82,SSW,211,0.0,1.0,52,0.00,,,0.00,WeatherCatV1.14B232,2013-06-13 05:16:00,
2013-06-12 23:21:00,56.7,40.2,29.82,SSW,211,0.0,0.0,54,0.00,,,0.00,WeatherCatV1.14B232,2013-06-13 05:21:00,
2013-06-12 23:26:00,56.5,40.1,29.82,South,188,2.0,2.0,54,0.00,,,0.00,WeatherCatV1.14B232,2013-06-13 05:26:00,
2013-06-12 23:31:00,56.3,39.9,29.82,SW,222,0.0,2.0,54,0.00,,,0.00,WeatherCatV1.14B232,2013-06-13 05:31:00,
2013-06-12 23:36:00,56.1,36.7,29.83,SSW,204,2.0,2.0,48,0.00,,,0.00,WeatherCatV1.14B232,2013-06-13 05:36:00,
2013-06-12 23:41:00,55.9,38.5,29.83,ESE,103,0.0,1.0,52,0.00,,,0.00,WeatherCatV1.14B232,2013-06-13 05:41:00,
2013-06-12 23:46:00,55.7,39.3,29.83,SE,145,0.0,0.0,54,0.00,,,0.00,WeatherCatV1.14B232,2013-06-13 05:46:00,
2013-06-12 23:51:00,55.6,39.7,29.83,NE,53,1.0,2.0,55,0.00,,,0.00,WeatherCatV1.14B232,2013-06-13 05:51:00,
2013-06-12 23:56:00,55.4,40.4,29.83,West,270,0.0,1.0,57,0.00,,,0.00,WeatherCatV1.14B232,2013-06-13 05:56:00,